sensor_id;sensor_type;location;lat;lon;timestamp;temperature;humidity
3466;DHT22;1747;48.884;9.160;2023-04-19T00:02:10;11.20;99.90
3466;DHT22;1747;48.884;9.160;2023-04-19T00:04:39;11.20;99.90
3466;DHT22;1747;48.884;9.160;2023-04-19T00:07:05;11.30;99.90
3466;DHT22;1747;48.884;9.160;2023-04-19T00:09:33;11.20;99.90
3466;DHT22;1747;48.884;9.160;2023-04-19T00:11:59;11.20;99.90
3466;DHT22;1747;48.884;9.160;2023-04-19T00:14:27;11.20;99.90
3466;DHT22;1747;48.884;9.160;2023-04-19T00:16:54;11.20;99.90
3466;DHT22;1747;48.884;9.160;2023-04-19T00:19:20;11.20;99.90
3466;DHT22;1747;48.884;9.160;2023-04-19T00:21:49;11.20;99.90
3466;DHT22;1747;48.884;9.160;2023-04-19T00:24:16;11.20;99.90
3466;DHT22;1747;48.884;9.160;2023-04-19T00:26:43;11.20;99.90
3466;DHT22;1747;48.884;9.160;2023-04-19T00:29:10;11.20;99.90
3466;DHT22;1747;48.884;9.160;2023-04-19T00:31:37;11.20;99.90
3466;DHT22;1747;48.884;9.160;2023-04-19T00:34:04;11.30;99.90
3466;DHT22;1747;48.884;9.160;2023-04-19T00:36:31;11.20;99.90
3466;DHT22;1747;48.884;9.160;2023-04-19T00:38:59;11.20;99.90
3466;DHT22;1747;48.884;9.160;2023-04-19T00:41:26;11.20;99.90
3466;DHT22;1747;48.884;9.160;2023-04-19T00:43:53;11.20;99.90
3466;DHT22;1747;48.884;9.160;2023-04-19T00:46:20;11.10;99.90
3466;DHT22;1747;48.884;9.160;2023-04-19T00:48:48;11.10;99.90
3466;DHT22;1747;48.884;9.160;2023-04-19T00:51:15;11.00;99.90
3466;DHT22;1747;48.884;9.160;2023-04-19T00:53:42;10.90;99.90
3466;DHT22;1747;48.884;9.160;2023-04-19T00:56:10;11.00;99.90
3466;DHT22;1747;48.884;9.160;2023-04-19T00:58:39;11.00;99.90
3466;DHT22;1747;48.884;9.160;2023-04-19T01:01:06;11.00;99.90
3466;DHT22;1747;48.884;9.160;2023-04-19T01:03:33;11.00;99.90
3466;DHT22;1747;48.884;9.160;2023-04-19T01:06:01;11.00;99.90
3466;DHT22;1747;48.884;9.160;2023-04-19T01:08:28;11.00;99.90
3466;DHT22;1747;48.884;9.160;2023-04-19T01:10:55;11.10;99.90
3466;DHT22;1747;48.884;9.160;2023-04-19T01:13:23;11.00;99.90
3466;DHT22;1747;48.884;9.160;2023-04-19T01:15:52;11.00;99.90
3466;DHT22;1747;48.884;9.160;2023-04-19T01:18:19;11.00;99.90
3466;DHT22;1747;48.884;9.160;2023-04-19T01:20:48;11.00;99.90
3466;DHT22;1747;48.884;9.160;2023-04-19T01:23:16;11.00;99.90
3466;DHT22;1747;48.884;9.160;2023-04-19T01:25:43;11.00;99.90
3466;DHT22;1747;48.884;9.160;2023-04-19T01:28:10;11.00;99.90
3466;DHT22;1747;48.884;9.160;2023-04-19T01:30:37;11.00;99.90
3466;DHT22;1747;48.884;9.160;2023-04-19T01:33:04;11.10;99.90
3466;DHT22;1747;48.884;9.160;2023-04-19T01:35:31;11.00;99.90
3466;DHT22;1747;48.884;9.160;2023-04-19T01:37:57;11.00;99.90
3466;DHT22;1747;48.884;9.160;2023-04-19T01:40:27;11.00;99.90
3466;DHT22;1747;48.884;9.160;2023-04-19T01:42:53;11.00;99.90
3466;DHT22;1747;48.884;9.160;2023-04-19T01:45:20;11.00;99.90
3466;DHT22;1747;48.884;9.160;2023-04-19T01:47:47;11.00;99.90
3466;DHT22;1747;48.884;9.160;2023-04-19T01:50:14;10.90;99.90
3466;DHT22;1747;48.884;9.160;2023-04-19T01:52:41;10.90;99.90
3466;DHT22;1747;48.884;9.160;2023-04-19T01:55:08;10.90;99.90
3466;DHT22;1747;48.884;9.160;2023-04-19T01:57:36;10.90;99.90
3466;DHT22;1747;48.884;9.160;2023-04-19T02:00:03;10.90;99.90
3466;DHT22;1747;48.884;9.160;2023-04-19T02:02:30;10.90;99.90
3466;DHT22;1747;48.884;9.160;2023-04-19T02:04:57;10.90;99.90
3466;DHT22;1747;48.884;9.160;2023-04-19T02:07:24;10.80;99.90
3466;DHT22;1747;48.884;9.160;2023-04-19T02:09:51;10.80;99.90
3466;DHT22;1747;48.884;9.160;2023-04-19T02:12:17;10.80;99.90
3466;DHT22;1747;48.884;9.160;2023-04-19T02:14:45;10.80;99.90
3466;DHT22;1747;48.884;9.160;2023-04-19T02:17:12;10.80;99.90
3466;DHT22;1747;48.884;9.160;2023-04-19T02:19:39;10.80;99.90
3466;DHT22;1747;48.884;9.160;2023-04-19T02:22:06;10.80;99.90
3466;DHT22;1747;48.884;9.160;2023-04-19T02:24:32;10.80;99.90
3466;DHT22;1747;48.884;9.160;2023-04-19T02:26:59;10.80;99.90
3466;DHT22;1747;48.884;9.160;2023-04-19T02:29:26;10.80;99.90
3466;DHT22;1747;48.884;9.160;2023-04-19T02:31:54;10.80;99.90
3466;DHT22;1747;48.884;9.160;2023-04-19T02:34:21;10.80;99.90
3466;DHT22;1747;48.884;9.160;2023-04-19T02:36:48;10.80;99.90
3466;DHT22;1747;48.884;9.160;2023-04-19T02:39:15;10.80;99.90
3466;DHT22;1747;48.884;9.160;2023-04-19T02:41:42;10.80;99.90
3466;DHT22;1747;48.884;9.160;2023-04-19T02:44:09;10.70;99.90
3466;DHT22;1747;48.884;9.160;2023-04-19T02:46:35;10.80;99.90
3466;DHT22;1747;48.884;9.160;2023-04-19T02:49:04;10.70;99.90
3466;DHT22;1747;48.884;9.160;2023-04-19T02:51:30;10.70;99.90
3466;DHT22;1747;48.884;9.160;2023-04-19T02:53:57;10.70;99.90
3466;DHT22;1747;48.884;9.160;2023-04-19T02:56:24;10.70;99.90
3466;DHT22;1747;48.884;9.160;2023-04-19T02:58:52;10.80;99.90
3466;DHT22;1747;48.884;9.160;2023-04-19T03:01:19;10.80;99.90
3466;DHT22;1747;48.884;9.160;2023-04-19T03:03:45;10.80;99.90
3466;DHT22;1747;48.884;9.160;2023-04-19T03:06:14;10.80;99.90
3466;DHT22;1747;48.884;9.160;2023-04-19T03:08:41;10.80;99.90
3466;DHT22;1747;48.884;9.160;2023-04-19T03:11:08;10.80;99.90
3466;DHT22;1747;48.884;9.160;2023-04-19T03:13:34;10.80;99.90
3466;DHT22;1747;48.884;9.160;2023-04-19T03:16:01;10.80;99.90
3466;DHT22;1747;48.884;9.160;2023-04-19T03:18:28;10.70;99.90
3466;DHT22;1747;48.884;9.160;2023-04-19T03:20:55;10.70;99.90
3466;DHT22;1747;48.884;9.160;2023-04-19T03:23:24;10.70;99.90
3466;DHT22;1747;48.884;9.160;2023-04-19T03:25:51;10.70;99.90
3466;DHT22;1747;48.884;9.160;2023-04-19T03:28:18;10.80;99.90
3466;DHT22;1747;48.884;9.160;2023-04-19T03:30:44;10.80;99.90
3466;DHT22;1747;48.884;9.160;2023-04-19T03:33:11;10.80;99.90
3466;DHT22;1747;48.884;9.160;2023-04-19T03:35:38;10.80;99.90
3466;DHT22;1747;48.884;9.160;2023-04-19T03:38:05;10.70;99.90
3466;DHT22;1747;48.884;9.160;2023-04-19T03:40:35;10.70;99.90
3466;DHT22;1747;48.884;9.160;2023-04-19T03:43:02;10.70;99.90
3466;DHT22;1747;48.884;9.160;2023-04-19T03:45:29;10.70;99.90
3466;DHT22;1747;48.884;9.160;2023-04-19T03:47:56;10.70;99.90
3466;DHT22;1747;48.884;9.160;2023-04-19T03:50:23;10.60;99.90
3466;DHT22;1747;48.884;9.160;2023-04-19T03:52:50;10.60;99.90
3466;DHT22;1747;48.884;9.160;2023-04-19T03:55:17;10.60;99.90
3466;DHT22;1747;48.884;9.160;2023-04-19T03:57:45;10.60;99.90
3466;DHT22;1747;48.884;9.160;2023-04-19T04:00:12;10.60;99.90
3466;DHT22;1747;48.884;9.160;2023-04-19T04:02:39;10.60;99.90
3466;DHT22;1747;48.884;9.160;2023-04-19T04:05:07;10.60;99.90
3466;DHT22;1747;48.884;9.160;2023-04-19T04:07:33;10.60;99.90
3466;DHT22;1747;48.884;9.160;2023-04-19T04:10:00;10.60;99.90
3466;DHT22;1747;48.884;9.160;2023-04-19T04:12:27;10.60;99.90
3466;DHT22;1747;48.884;9.160;2023-04-19T04:14:55;10.60;99.90
3466;DHT22;1747;48.884;9.160;2023-04-19T04:17:22;10.60;99.90
3466;DHT22;1747;48.884;9.160;2023-04-19T04:19:49;10.60;99.90
3466;DHT22;1747;48.884;9.160;2023-04-19T04:22:16;10.60;99.90
3466;DHT22;1747;48.884;9.160;2023-04-19T04:24:43;10.50;99.90
3466;DHT22;1747;48.884;9.160;2023-04-19T04:27:10;10.50;99.90
3466;DHT22;1747;48.884;9.160;2023-04-19T04:29:37;10.50;99.90
3466;DHT22;1747;48.884;9.160;2023-04-19T04:32:06;10.40;99.90
3466;DHT22;1747;48.884;9.160;2023-04-19T04:34:35;10.40;99.90
3466;DHT22;1747;48.884;9.160;2023-04-19T04:37:02;10.40;99.90
3466;DHT22;1747;48.884;9.160;2023-04-19T04:39:29;10.40;99.90
3466;DHT22;1747;48.884;9.160;2023-04-19T04:41:55;10.40;99.90
3466;DHT22;1747;48.884;9.160;2023-04-19T04:44:24;10.30;99.90
3466;DHT22;1747;48.884;9.160;2023-04-19T04:46:52;10.30;99.90
3466;DHT22;1747;48.884;9.160;2023-04-19T04:49:20;10.30;99.90
3466;DHT22;1747;48.884;9.160;2023-04-19T04:51:47;10.20;99.90
3466;DHT22;1747;48.884;9.160;2023-04-19T04:54:13;10.30;99.90
3466;DHT22;1747;48.884;9.160;2023-04-19T04:56:40;10.30;99.90
3466;DHT22;1747;48.884;9.160;2023-04-19T04:59:07;10.30;99.90
3466;DHT22;1747;48.884;9.160;2023-04-19T05:01:34;10.30;99.90
3466;DHT22;1747;48.884;9.160;2023-04-19T05:04:00;10.30;99.90
3466;DHT22;1747;48.884;9.160;2023-04-19T05:06:29;10.30;99.90
3466;DHT22;1747;48.884;9.160;2023-04-19T05:08:56;10.40;99.90
3466;DHT22;1747;48.884;9.160;2023-04-19T05:11:23;10.40;99.90
3466;DHT22;1747;48.884;9.160;2023-04-19T05:13:49;10.40;99.90
3466;DHT22;1747;48.884;9.160;2023-04-19T05:16:16;10.40;99.90
3466;DHT22;1747;48.884;9.160;2023-04-19T05:18:44;10.50;99.90
3466;DHT22;1747;48.884;9.160;2023-04-19T05:21:10;10.50;99.90
3466;DHT22;1747;48.884;9.160;2023-04-19T05:23:39;10.60;99.90
3466;DHT22;1747;48.884;9.160;2023-04-19T05:26:05;10.60;99.90
3466;DHT22;1747;48.884;9.160;2023-04-19T05:28:32;10.70;99.90
3466;DHT22;1747;48.884;9.160;2023-04-19T05:30:59;10.70;99.90
3466;DHT22;1747;48.884;9.160;2023-04-19T05:33:26;10.70;99.90
3466;DHT22;1747;48.884;9.160;2023-04-19T05:35:52;10.70;99.90
3466;DHT22;1747;48.884;9.160;2023-04-19T05:38:19;10.80;99.90
3466;DHT22;1747;48.884;9.160;2023-04-19T05:40:47;10.80;99.90
3466;DHT22;1747;48.884;9.160;2023-04-19T05:43:14;10.80;99.90
3466;DHT22;1747;48.884;9.160;2023-04-19T05:45:41;10.80;99.90
3466;DHT22;1747;48.884;9.160;2023-04-19T05:48:08;10.80;99.90
3466;DHT22;1747;48.884;9.160;2023-04-19T05:50:35;10.80;99.90
3466;DHT22;1747;48.884;9.160;2023-04-19T05:53:02;10.80;99.90
3466;DHT22;1747;48.884;9.160;2023-04-19T05:55:28;10.80;99.90
3466;DHT22;1747;48.884;9.160;2023-04-19T05:57:57;10.80;99.90
3466;DHT22;1747;48.884;9.160;2023-04-19T06:00:24;10.80;99.90
3466;DHT22;1747;48.884;9.160;2023-04-19T06:02:55;10.80;99.90
3466;DHT22;1747;48.884;9.160;2023-04-19T06:05:22;10.90;99.90
3466;DHT22;1747;48.884;9.160;2023-04-19T06:07:48;10.90;99.90
3466;DHT22;1747;48.884;9.160;2023-04-19T06:10:16;10.90;99.90
3466;DHT22;1747;48.884;9.160;2023-04-19T06:12:43;11.10;99.90
3466;DHT22;1747;48.884;9.160;2023-04-19T06:15:11;11.10;99.90
3466;DHT22;1747;48.884;9.160;2023-04-19T06:17:38;11.20;99.90
3466;DHT22;1747;48.884;9.160;2023-04-19T06:20:06;11.20;99.90
3466;DHT22;1747;48.884;9.160;2023-04-19T06:22:34;11.20;99.90
3466;DHT22;1747;48.884;9.160;2023-04-19T06:25:07;11.30;99.90
3466;DHT22;1747;48.884;9.160;2023-04-19T06:27:34;11.30;99.90
3466;DHT22;1747;48.884;9.160;2023-04-19T06:30:01;11.40;99.90
3466;DHT22;1747;48.884;9.160;2023-04-19T06:32:29;11.40;99.90
3466;DHT22;1747;48.884;9.160;2023-04-19T06:34:56;11.40;99.90
3466;DHT22;1747;48.884;9.160;2023-04-19T06:37:23;11.40;99.90
3466;DHT22;1747;48.884;9.160;2023-04-19T06:39:49;11.40;99.90
3466;DHT22;1747;48.884;9.160;2023-04-19T06:42:16;11.40;99.90
3466;DHT22;1747;48.884;9.160;2023-04-19T06:44:44;11.40;99.90
3466;DHT22;1747;48.884;9.160;2023-04-19T06:47:11;11.40;99.90
3466;DHT22;1747;48.884;9.160;2023-04-19T06:49:39;11.60;99.90
3466;DHT22;1747;48.884;9.160;2023-04-19T06:52:06;11.60;99.90
3466;DHT22;1747;48.884;9.160;2023-04-19T06:54:33;11.70;99.90
3466;DHT22;1747;48.884;9.160;2023-04-19T06:57:00;11.70;99.90
3466;DHT22;1747;48.884;9.160;2023-04-19T06:59:27;11.80;99.90
3466;DHT22;1747;48.884;9.160;2023-04-19T07:01:56;11.90;99.90
3466;DHT22;1747;48.884;9.160;2023-04-19T07:04:23;12.00;99.90
3466;DHT22;1747;48.884;9.160;2023-04-19T07:06:52;12.00;99.90
3466;DHT22;1747;48.884;9.160;2023-04-19T07:09:19;12.10;99.90
3466;DHT22;1747;48.884;9.160;2023-04-19T07:11:45;12.10;99.90
3466;DHT22;1747;48.884;9.160;2023-04-19T07:14:13;12.10;99.90
3466;DHT22;1747;48.884;9.160;2023-04-19T07:16:40;12.20;99.90
3466;DHT22;1747;48.884;9.160;2023-04-19T07:19:07;12.20;99.90
3466;DHT22;1747;48.884;9.160;2023-04-19T07:21:34;12.20;99.90
3466;DHT22;1747;48.884;9.160;2023-04-19T07:24:04;12.30;99.90
3466;DHT22;1747;48.884;9.160;2023-04-19T07:26:31;12.30;99.90
3466;DHT22;1747;48.884;9.160;2023-04-19T07:28:58;12.40;99.90
3466;DHT22;1747;48.884;9.160;2023-04-19T07:31:26;12.40;99.90
3466;DHT22;1747;48.884;9.160;2023-04-19T07:33:53;12.50;99.90
3466;DHT22;1747;48.884;9.160;2023-04-19T07:36:20;12.60;99.90
3466;DHT22;1747;48.884;9.160;2023-04-19T07:38:47;12.50;99.90
3466;DHT22;1747;48.884;9.160;2023-04-19T07:41:15;12.50;99.90
3466;DHT22;1747;48.884;9.160;2023-04-19T07:43:42;12.50;99.90
3466;DHT22;1747;48.884;9.160;2023-04-19T07:46:10;12.60;99.90
3466;DHT22;1747;48.884;9.160;2023-04-19T07:48:37;12.60;99.90
3466;DHT22;1747;48.884;9.160;2023-04-19T07:51:08;12.70;99.90
3466;DHT22;1747;48.884;9.160;2023-04-19T07:54:01;12.70;99.90
3466;DHT22;1747;48.884;9.160;2023-04-19T07:56:29;12.90;99.90
3466;DHT22;1747;48.884;9.160;2023-04-19T07:58:56;13.10;99.90
3466;DHT22;1747;48.884;9.160;2023-04-19T08:01:23;13.10;99.90
3466;DHT22;1747;48.884;9.160;2023-04-19T08:03:50;13.30;99.90
3466;DHT22;1747;48.884;9.160;2023-04-19T08:06:17;13.40;99.90
3466;DHT22;1747;48.884;9.160;2023-04-19T08:08:46;13.50;99.90
3466;DHT22;1747;48.884;9.160;2023-04-19T08:11:12;13.40;99.90
3466;DHT22;1747;48.884;9.160;2023-04-19T08:13:41;13.50;99.90
3466;DHT22;1747;48.884;9.160;2023-04-19T08:16:08;13.40;99.90
3466;DHT22;1747;48.884;9.160;2023-04-19T08:18:35;13.40;99.90
3466;DHT22;1747;48.884;9.160;2023-04-19T08:21:02;13.30;99.90
3466;DHT22;1747;48.884;9.160;2023-04-19T08:23:29;13.30;99.90
3466;DHT22;1747;48.884;9.160;2023-04-19T08:25:56;13.30;99.90
3466;DHT22;1747;48.884;9.160;2023-04-19T08:28:23;13.20;99.90
3466;DHT22;1747;48.884;9.160;2023-04-19T08:30:51;13.10;99.90
3466;DHT22;1747;48.884;9.160;2023-04-19T08:33:18;13.00;99.90
3466;DHT22;1747;48.884;9.160;2023-04-19T08:35:45;13.00;99.90
3466;DHT22;1747;48.884;9.160;2023-04-19T08:38:11;12.90;99.90
3466;DHT22;1747;48.884;9.160;2023-04-19T08:40:40;13.00;99.90
3466;DHT22;1747;48.884;9.160;2023-04-19T08:43:11;13.20;99.90
3466;DHT22;1747;48.884;9.160;2023-04-19T08:45:38;13.30;99.90
3466;DHT22;1747;48.884;9.160;2023-04-19T08:48:08;13.40;99.90
3466;DHT22;1747;48.884;9.160;2023-04-19T08:50:37;13.50;99.90
3466;DHT22;1747;48.884;9.160;2023-04-19T08:53:05;13.50;99.90
3466;DHT22;1747;48.884;9.160;2023-04-19T08:55:33;13.60;99.90
3466;DHT22;1747;48.884;9.160;2023-04-19T08:58:00;13.60;99.90
3466;DHT22;1747;48.884;9.160;2023-04-19T09:00:28;13.70;99.90
3466;DHT22;1747;48.884;9.160;2023-04-19T09:02:55;13.80;99.90
3466;DHT22;1747;48.884;9.160;2023-04-19T09:05:24;13.90;99.90
3466;DHT22;1747;48.884;9.160;2023-04-19T09:07:51;14.10;99.90
3466;DHT22;1747;48.884;9.160;2023-04-19T09:10:19;14.30;99.90
3466;DHT22;1747;48.884;9.160;2023-04-19T09:13:02;14.40;99.90
3466;DHT22;1747;48.884;9.160;2023-04-19T09:15:36;14.50;99.90
3466;DHT22;1747;48.884;9.160;2023-04-19T09:18:05;14.50;99.90
3466;DHT22;1747;48.884;9.160;2023-04-19T09:20:37;14.60;99.90
3466;DHT22;1747;48.884;9.160;2023-04-19T09:23:05;14.60;99.90
3466;DHT22;1747;48.884;9.160;2023-04-19T09:25:32;14.70;99.90
3466;DHT22;1747;48.884;9.160;2023-04-19T09:28:08;14.90;99.90
3466;DHT22;1747;48.884;9.160;2023-04-19T09:30:35;15.00;99.90
3466;DHT22;1747;48.884;9.160;2023-04-19T09:33:02;15.10;99.90
3466;DHT22;1747;48.884;9.160;2023-04-19T09:35:40;15.30;99.90
3466;DHT22;1747;48.884;9.160;2023-04-19T09:38:07;15.50;99.90
3466;DHT22;1747;48.884;9.160;2023-04-19T09:40:40;15.60;99.90
3466;DHT22;1747;48.884;9.160;2023-04-19T09:43:22;15.70;99.90
3466;DHT22;1747;48.884;9.160;2023-04-19T09:45:49;15.90;99.90
3466;DHT22;1747;48.884;9.160;2023-04-19T09:48:17;15.90;99.90
3466;DHT22;1747;48.884;9.160;2023-04-19T09:50:52;15.90;99.90
3466;DHT22;1747;48.884;9.160;2023-04-19T09:53:20;15.70;99.90
3466;DHT22;1747;48.884;9.160;2023-04-19T09:55:51;15.80;99.90
3466;DHT22;1747;48.884;9.160;2023-04-19T09:58:18;15.90;99.90
3466;DHT22;1747;48.884;9.160;2023-04-19T10:00:46;15.80;99.90
3466;DHT22;1747;48.884;9.160;2023-04-19T10:03:14;15.50;99.90
3466;DHT22;1747;48.884;9.160;2023-04-19T10:05:42;15.30;99.90
3466;DHT22;1747;48.884;9.160;2023-04-19T10:08:12;15.20;99.90
3466;DHT22;1747;48.884;9.160;2023-04-19T10:10:39;15.10;99.90
3466;DHT22;1747;48.884;9.160;2023-04-19T10:13:10;15.00;99.90
3466;DHT22;1747;48.884;9.160;2023-04-19T10:15:38;15.00;99.90
3466;DHT22;1747;48.884;9.160;2023-04-19T10:18:07;14.90;99.90
3466;DHT22;1747;48.884;9.160;2023-04-19T10:20:38;14.90;99.90
3466;DHT22;1747;48.884;9.160;2023-04-19T10:23:07;14.80;99.90
3466;DHT22;1747;48.884;9.160;2023-04-19T10:25:37;14.70;99.90
3466;DHT22;1747;48.884;9.160;2023-04-19T10:28:04;14.70;99.90
3466;DHT22;1747;48.884;9.160;2023-04-19T10:30:31;14.70;99.90
3466;DHT22;1747;48.884;9.160;2023-04-19T10:32:59;14.60;99.90
3466;DHT22;1747;48.884;9.160;2023-04-19T10:35:33;14.60;99.90
3466;DHT22;1747;48.884;9.160;2023-04-19T10:38:06;14.60;99.90
3466;DHT22;1747;48.884;9.160;2023-04-19T10:40:54;14.70;99.90
3466;DHT22;1747;48.884;9.160;2023-04-19T10:43:22;14.70;99.90
3466;DHT22;1747;48.884;9.160;2023-04-19T10:45:49;14.80;99.90
3466;DHT22;1747;48.884;9.160;2023-04-19T10:48:33;14.90;99.90
3466;DHT22;1747;48.884;9.160;2023-04-19T10:51:03;15.00;99.90
3466;DHT22;1747;48.884;9.160;2023-04-19T10:53:53;15.00;99.90
3466;DHT22;1747;48.884;9.160;2023-04-19T10:59:32;14.90;99.90
3466;DHT22;1747;48.884;9.160;2023-04-19T11:02:00;14.80;99.90
3466;DHT22;1747;48.884;9.160;2023-04-19T11:05:00;14.70;99.90
3466;DHT22;1747;48.884;9.160;2023-04-19T11:07:37;14.50;99.90
3466;DHT22;1747;48.884;9.160;2023-04-19T11:10:06;14.40;99.90
3466;DHT22;1747;48.884;9.160;2023-04-19T11:12:33;14.30;99.90
3466;DHT22;1747;48.884;9.160;2023-04-19T11:15:02;14.20;99.90
3466;DHT22;1747;48.884;9.160;2023-04-19T11:17:31;14.20;99.90
3466;DHT22;1747;48.884;9.160;2023-04-19T11:19:59;14.10;99.90
3466;DHT22;1747;48.884;9.160;2023-04-19T11:22:30;14.20;99.90
3466;DHT22;1747;48.884;9.160;2023-04-19T11:25:04;14.10;99.90
3466;DHT22;1747;48.884;9.160;2023-04-19T11:27:32;14.10;99.90
3466;DHT22;1747;48.884;9.160;2023-04-19T11:30:05;14.00;99.90
3466;DHT22;1747;48.884;9.160;2023-04-19T11:32:32;13.90;99.90
3466;DHT22;1747;48.884;9.160;2023-04-19T11:35:04;13.70;99.90
3466;DHT22;1747;48.884;9.160;2023-04-19T11:37:32;13.60;99.90
3466;DHT22;1747;48.884;9.160;2023-04-19T11:39:59;13.50;99.90
3466;DHT22;1747;48.884;9.160;2023-04-19T11:42:26;13.50;99.90
3466;DHT22;1747;48.884;9.160;2023-04-19T11:44:56;13.40;99.90
3466;DHT22;1747;48.884;9.160;2023-04-19T11:47:25;13.30;99.90
3466;DHT22;1747;48.884;9.160;2023-04-19T11:49:54;13.20;99.90
3466;DHT22;1747;48.884;9.160;2023-04-19T11:52:22;13.20;99.90
3466;DHT22;1747;48.884;9.160;2023-04-19T11:54:50;13.10;99.90
3466;DHT22;1747;48.884;9.160;2023-04-19T11:57:26;13.20;99.90
3466;DHT22;1747;48.884;9.160;2023-04-19T12:00:04;13.00;99.90
3466;DHT22;1747;48.884;9.160;2023-04-19T12:02:39;13.00;99.90
3466;DHT22;1747;48.884;9.160;2023-04-19T12:05:07;12.90;99.90
3466;DHT22;1747;48.884;9.160;2023-04-19T12:07:34;12.90;99.90
3466;DHT22;1747;48.884;9.160;2023-04-19T12:10:07;12.80;99.90
3466;DHT22;1747;48.884;9.160;2023-04-19T12:12:36;12.60;99.90
3466;DHT22;1747;48.884;9.160;2023-04-19T12:15:03;12.60;99.90
3466;DHT22;1747;48.884;9.160;2023-04-19T12:17:30;12.60;99.90
3466;DHT22;1747;48.884;9.160;2023-04-19T12:19:58;12.60;99.90
3466;DHT22;1747;48.884;9.160;2023-04-19T12:22:25;12.60;99.90
3466;DHT22;1747;48.884;9.160;2023-04-19T12:24:53;12.60;99.90
3466;DHT22;1747;48.884;9.160;2023-04-19T12:27:20;12.60;99.90
3466;DHT22;1747;48.884;9.160;2023-04-19T12:29:47;12.60;99.90
3466;DHT22;1747;48.884;9.160;2023-04-19T12:32:14;12.50;99.90
3466;DHT22;1747;48.884;9.160;2023-04-19T12:34:40;12.50;99.90
3466;DHT22;1747;48.884;9.160;2023-04-19T12:37:09;12.50;99.90
3466;DHT22;1747;48.884;9.160;2023-04-19T12:39:36;12.50;99.90
3466;DHT22;1747;48.884;9.160;2023-04-19T12:42:03;12.50;99.90
3466;DHT22;1747;48.884;9.160;2023-04-19T12:44:30;12.50;99.90
3466;DHT22;1747;48.884;9.160;2023-04-19T12:46:57;12.40;99.90
3466;DHT22;1747;48.884;9.160;2023-04-19T12:49:24;12.50;99.90
3466;DHT22;1747;48.884;9.160;2023-04-19T12:51:51;12.40;99.90
3466;DHT22;1747;48.884;9.160;2023-04-19T12:54:20;12.40;99.90
3466;DHT22;1747;48.884;9.160;2023-04-19T12:56:47;12.40;99.90
3466;DHT22;1747;48.884;9.160;2023-04-19T12:59:14;12.40;99.90
3466;DHT22;1747;48.884;9.160;2023-04-19T13:01:41;12.40;99.90
3466;DHT22;1747;48.884;9.160;2023-04-19T13:04:07;12.40;99.90
3466;DHT22;1747;48.884;9.160;2023-04-19T13:06:36;12.40;99.90
3466;DHT22;1747;48.884;9.160;2023-04-19T13:09:04;12.40;99.90
3466;DHT22;1747;48.884;9.160;2023-04-19T13:11:35;12.40;99.90
3466;DHT22;1747;48.884;9.160;2023-04-19T13:14:03;12.40;99.90
3466;DHT22;1747;48.884;9.160;2023-04-19T13:16:30;12.40;99.90
3466;DHT22;1747;48.884;9.160;2023-04-19T13:18:57;12.50;99.90
3466;DHT22;1747;48.884;9.160;2023-04-19T13:21:24;12.60;99.90
3466;DHT22;1747;48.884;9.160;2023-04-19T13:23:52;12.70;99.90
3466;DHT22;1747;48.884;9.160;2023-04-19T13:26:19;12.70;99.90
3466;DHT22;1747;48.884;9.160;2023-04-19T13:28:48;12.80;99.90
3466;DHT22;1747;48.884;9.160;2023-04-19T13:31:15;12.80;99.90
3466;DHT22;1747;48.884;9.160;2023-04-19T13:33:42;12.90;99.90
3466;DHT22;1747;48.884;9.160;2023-04-19T13:36:09;12.90;99.90
3466;DHT22;1747;48.884;9.160;2023-04-19T13:38:36;13.00;99.90
3466;DHT22;1747;48.884;9.160;2023-04-19T13:41:03;13.00;99.90
3466;DHT22;1747;48.884;9.160;2023-04-19T13:43:30;13.10;99.90
3466;DHT22;1747;48.884;9.160;2023-04-19T13:45:59;13.10;99.90
3466;DHT22;1747;48.884;9.160;2023-04-19T13:48:26;13.00;99.90
3466;DHT22;1747;48.884;9.160;2023-04-19T13:50:54;13.00;99.90
3466;DHT22;1747;48.884;9.160;2023-04-19T13:53:21;13.10;99.90
3466;DHT22;1747;48.884;9.160;2023-04-19T13:55:47;13.30;99.90
3466;DHT22;1747;48.884;9.160;2023-04-19T13:58:15;13.50;99.90
3466;DHT22;1747;48.884;9.160;2023-04-19T14:00:41;13.80;99.90
3466;DHT22;1747;48.884;9.160;2023-04-19T14:03:10;14.00;99.90
3466;DHT22;1747;48.884;9.160;2023-04-19T14:05:37;14.10;99.90
3466;DHT22;1747;48.884;9.160;2023-04-19T14:08:04;14.00;99.90
3466;DHT22;1747;48.884;9.160;2023-04-19T14:10:31;13.90;99.90
3466;DHT22;1747;48.884;9.160;2023-04-19T14:12:57;13.80;99.90
3466;DHT22;1747;48.884;9.160;2023-04-19T14:15:24;13.90;99.90
3466;DHT22;1747;48.884;9.160;2023-04-19T14:17:51;13.90;99.90
3466;DHT22;1747;48.884;9.160;2023-04-19T14:20:20;14.00;99.90
3466;DHT22;1747;48.884;9.160;2023-04-19T14:22:46;14.00;99.90
3466;DHT22;1747;48.884;9.160;2023-04-19T14:25:13;14.00;99.90
3466;DHT22;1747;48.884;9.160;2023-04-19T14:27:41;14.10;99.90
3466;DHT22;1747;48.884;9.160;2023-04-19T14:30:08;14.20;99.90
3466;DHT22;1747;48.884;9.160;2023-04-19T14:32:35;14.20;99.90
3466;DHT22;1747;48.884;9.160;2023-04-19T14:35:03;14.20;99.90
3466;DHT22;1747;48.884;9.160;2023-04-19T14:37:31;14.40;99.90
3466;DHT22;1747;48.884;9.160;2023-04-19T14:39:58;14.40;99.90
3466;DHT22;1747;48.884;9.160;2023-04-19T14:42:25;14.50;99.90
3466;DHT22;1747;48.884;9.160;2023-04-19T14:44:52;14.60;99.90
3466;DHT22;1747;48.884;9.160;2023-04-19T14:47:19;14.60;99.90
3466;DHT22;1747;48.884;9.160;2023-04-19T14:49:47;14.50;99.90
3466;DHT22;1747;48.884;9.160;2023-04-19T14:52:17;14.40;99.90
3466;DHT22;1747;48.884;9.160;2023-04-19T14:54:47;14.30;99.90
3466;DHT22;1747;48.884;9.160;2023-04-19T14:57:18;13.90;99.90
3466;DHT22;1747;48.884;9.160;2023-04-19T14:59:45;14.00;99.90
3466;DHT22;1747;48.884;9.160;2023-04-19T15:02:14;14.10;99.90
3466;DHT22;1747;48.884;9.160;2023-04-19T15:04:42;14.20;99.90
3466;DHT22;1747;48.884;9.160;2023-04-19T15:07:09;14.20;99.90
3466;DHT22;1747;48.884;9.160;2023-04-19T15:09:36;14.00;99.90
3466;DHT22;1747;48.884;9.160;2023-04-19T15:12:04;13.90;99.90
3466;DHT22;1747;48.884;9.160;2023-04-19T15:14:31;13.90;99.90
3466;DHT22;1747;48.884;9.160;2023-04-19T15:16:58;13.90;99.90
3466;DHT22;1747;48.884;9.160;2023-04-19T15:19:25;13.70;99.90
3466;DHT22;1747;48.884;9.160;2023-04-19T15:21:52;13.60;99.90
3466;DHT22;1747;48.884;9.160;2023-04-19T15:24:19;13.50;99.90
3466;DHT22;1747;48.884;9.160;2023-04-19T15:26:46;13.40;99.90
3466;DHT22;1747;48.884;9.160;2023-04-19T15:29:14;13.50;99.90
3466;DHT22;1747;48.884;9.160;2023-04-19T15:31:41;13.70;99.90
3466;DHT22;1747;48.884;9.160;2023-04-19T15:34:08;13.70;99.90
3466;DHT22;1747;48.884;9.160;2023-04-19T15:36:35;13.80;99.90
3466;DHT22;1747;48.884;9.160;2023-04-19T15:39:02;13.90;99.90
3466;DHT22;1747;48.884;9.160;2023-04-19T15:41:28;14.00;99.90
3466;DHT22;1747;48.884;9.160;2023-04-19T15:43:56;14.10;99.90
3466;DHT22;1747;48.884;9.160;2023-04-19T15:46:24;13.90;99.90
3466;DHT22;1747;48.884;9.160;2023-04-19T15:48:51;14.40;99.90
3466;DHT22;1747;48.884;9.160;2023-04-19T15:51:18;15.10;99.90
3466;DHT22;1747;48.884;9.160;2023-04-19T15:53:44;15.50;99.90
3466;DHT22;1747;48.884;9.160;2023-04-19T15:56:11;15.90;99.90
3466;DHT22;1747;48.884;9.160;2023-04-19T15:58:38;15.90;99.90
3466;DHT22;1747;48.884;9.160;2023-04-19T16:01:09;16.00;99.90
3466;DHT22;1747;48.884;9.160;2023-04-19T16:03:37;16.20;99.90
3466;DHT22;1747;48.884;9.160;2023-04-19T16:06:04;16.40;99.90
3466;DHT22;1747;48.884;9.160;2023-04-19T16:08:31;16.50;99.90
3466;DHT22;1747;48.884;9.160;2023-04-19T16:10:58;16.50;99.90